Time;durP1;ratioP1;P1;durP2;ratioP2;P2;SDS_P1;SDS_P2;PMS_P1;PMS_P2;Temp;Humidity;BMP_temperature;BMP_pressure;BME280_temperature;BME280_humidity;BME280_pressure;Samples;Min_cycle;Max_cycle;Signal;HPM_P1;HPM_P2
2022/07/01 00:00:53;;;;;;;16.30;8.88;;;;;;;23.83;74.98;97742.31;4368668;32;20161;-82
2022/07/01 00:03:20;;;;;;;17.95;9.52;;;;;;;23.70;75.83;97736.59;4368308;32;20102;-82
2022/07/01 00:05:48;;;;;;;18.90;9.25;;;;;;;23.55;77.18;97732.88;4368222;32;20083;-81
2022/07/01 00:08:15;;;;;;;15.55;9.25;;;;;;;23.64;76.75;97734.59;4368689;32;20067;-81
2022/07/01 00:10:42;;;;;;;19.75;9.98;;;;;;;23.58;77.10;97730.78;4368195;32;20413;-81
2022/07/01 00:13:09;;;;;;;18.02;9.48;;;;;;;23.44;77.58;97726.03;4368469;32;20096;-81
2022/07/01 00:15:36;;;;;;;17.65;9.50;;;;;;;23.48;77.71;97723.91;4368414;32;20095;-82
2022/07/01 00:18:03;;;;;;;15.10;8.88;;;;;;;23.64;77.05;97727.53;4368249;32;20451;-81
2022/07/01 00:20:30;;;;;;;16.52;8.73;;;;;;;23.51;77.57;97732.34;4368404;32;20111;-81
2022/07/01 00:22:57;;;;;;;15.95;9.23;;;;;;;23.35;78.15;97724.31;4367748;32;20121;-81
2022/07/01 00:25:24;;;;;;;16.40;8.57;;;;;;;23.32;78.25;97724.66;4367545;32;20090;-81
2022/07/01 00:27:51;;;;;;;18.10;9.77;;;;;;;23.44;77.90;97722.59;4365462;32;20137;-82
2022/07/01 00:30:19;;;;;;;16.42;9.10;;;;;;;23.43;77.84;97718.31;4365099;32;20386;-81
2022/07/01 00:32:46;;;;;;;14.48;8.85;;;;;;;23.41;78.14;97717.62;4365605;32;20524;-82
2022/07/01 00:35:13;;;;;;;17.73;9.10;;;;;;;23.19;78.92;97717.16;4365339;32;20091;-81
2022/07/01 00:37:40;;;;;;;15.45;8.73;;;;;;;23.48;77.96;97716.84;4365286;32;20075;-81
2022/07/01 00:40:08;;;;;;;18.80;9.20;;;;;;;23.43;78.23;97713.87;4365437;32;20438;-81
2022/07/01 00:42:39;;;;;;;18.42;9.60;;;;;;;23.53;77.99;97719.84;4365428;32;20091;-81
2022/07/01 00:45:08;;;;;;;17.05;9.35;;;;;;;23.62;77.59;97726.88;4365282;32;20123;-81
2022/07/01 00:47:39;;;;;;;17.25;9.60;;;;;;;23.32;78.95;97714.94;4365582;32;20072;-81
2022/07/01 00:50:11;;;;;;;14.90;8.95;;;;;;;23.42;78.66;97716.66;4365544;32;20113;-81
2022/07/01 00:52:40;;;;;;;21.00;9.25;;;;;;;23.72;76.98;97723.31;4365096;32;20430;-81
2022/07/01 00:55:09;;;;;;;18.10;9.70;;;;;;;23.40;78.02;97713.34;4365255;32;20091;-81
2022/07/01 00:57:38;;;;;;;18.35;9.77;;;;;;;23.30;78.71;97711.62;4365350;32;20079;-81
2022/07/01 01:00:11;;;;;;;15.95;10.10;;;;;;;23.78;76.77;97720.84;4365135;32;20099;-81
2022/07/01 01:02:38;;;;;;;19.05;10.07;;;;;;;23.57;77.98;97717.72;4365324;32;20099;-81
2022/07/01 01:05:07;;;;;;;19.10;10.43;;;;;;;23.67;77.88;97719.31;4364714;32;20087;-81
2022/07/01 01:07:35;;;;;;;16.73;9.65;;;;;;;23.51;78.52;97715.72;4365427;32;20127;-82
2022/07/01 01:10:03;;;;;;;18.05;10.45;;;;;;;23.47;78.85;97715.19;4351963;32;20153;-81
2022/07/01 01:12:30;;;;;;;18.12;10.68;;;;;;;23.62;78.64;97712.88;4364999;32;20170;-81
2022/07/01 01:14:57;;;;;;;18.77;11.23;;;;;;;23.79;78.31;97713.78;4365184;32;20182;-81
2022/07/01 01:17:24;;;;;;;17.35;10.32;;;;;;;23.91;78.36;97712.50;4365398;32;20091;-82
2022/07/01 01:19:53;;;;;;;21.12;10.90;;;;;;;23.70;79.47;97710.25;4364852;32;20508;-82
2022/07/01 01:22:20;;;;;;;20.02;12.10;;;;;;;24.08;77.71;97711.62;4365158;32;20129;-81
2022/07/01 01:24:47;;;;;;;18.58;10.15;;;;;;;24.20;76.52;97712.16;4365191;32;20226;-81
2022/07/01 01:27:16;;;;;;;15.98;9.20;;;;;;;24.15;76.55;97706.56;4364898;32;20131;-81
2022/07/01 01:29:43;;;;;;;15.70;9.63;;;;;;;23.91;76.14;97705.44;4365284;32;20146;-82
2022/07/01 01:32:10;;;;;;;17.95;9.95;;;;;;;23.97;75.80;97705.81;4365225;32;20633;-82
2022/07/01 01:34:38;;;;;;;18.73;11.52;;;;;;;23.67;76.89;97708.78;4351394;32;20145;-81
2022/07/01 01:37:08;;;;;;;19.17;10.63;;;;;;;23.50;78.93;97707.00;4364839;32;20615;-82
2022/07/01 01:39:37;;;;;;;20.17;10.82;;;;;;;23.66;78.25;97711.56;4364484;32;20090;-81
2022/07/01 01:42:05;;;;;;;18.52;10.10;;;;;;;23.35;79.03;97695.38;4364822;32;20105;-81
2022/07/01 01:44:33;;;;;;;15.07;9.75;;;;;;;23.47;78.22;97704.66;4351549;32;20358;-82
2022/07/01 01:47:01;;;;;;;17.48;10.65;;;;;;;23.42;78.28;97706.94;4364722;32;20462;-81
2022/07/01 01:49:28;;;;;;;15.85;10.35;;;;;;;23.41;78.29;97701.84;4365142;32;20153;-81
2022/07/01 01:51:57;;;;;;;18.73;10.57;;;;;;;23.07;79.73;97698.16;4365051;32;20110;-81
2022/07/01 01:54:24;;;;;;;19.10;10.80;;;;;;;23.40;78.52;97694.94;4351306;32;20109;-81
2022/07/01 01:56:51;;;;;;;21.10;10.60;;;;;;;23.64;78.05;97701.19;4365116;32;20400;-81
2022/07/01 01:59:18;;;;;;;19.08;11.45;;;;;;;23.29;79.10;97693.38;4365146;32;20138;-81
2022/07/01 02:01:45;;;;;;;18.92;11.18;;;;;;;22.95;80.95;97693.25;4364682;32;20159;-81
2022/07/01 02:04:12;;;;;;;17.95;10.50;;;;;;;23.37;79.10;97701.31;4364659;32;20182;-81
2022/07/01 02:06:42;;;;;;;19.30;10.43;;;;;;;23.41;78.70;97699.22;4364714;32;20414;-81
2022/07/01 02:09:09;;;;;;;18.92;10.00;;;;;;;23.41;78.42;97700.03;4364592;32;20146;-81
2022/07/01 02:11:36;;;;;;;18.33;11.12;;;;;;;23.35;78.60;97695.38;4364808;32;20120;-81
2022/07/01 02:14:04;;;;;;;17.37;11.02;;;;;;;23.11;79.67;97695.19;4364894;32;20101;-81
2022/07/01 02:16:31;;;;;;;16.85;11.45;;;;;;;23.23;79.42;97704.50;4364504;32;20166;-82
2022/07/01 02:18:58;;;;;;;21.15;11.40;;;;;;;23.27;79.07;97698.75;4364985;32;20102;-81
2022/07/01 02:21:26;;;;;;;20.83;11.63;;;;;;;22.84;81.38;97707.47;4364799;32;20122;-81
2022/07/01 02:23:53;;;;;;;19.83;12.45;;;;;;;23.00;81.61;97718.12;4364406;32;20169;-81
2022/07/01 02:26:20;;;;;;;20.27;12.00;;;;;;;23.24;81.06;97714.87;4364627;32;20119;-82
2022/07/01 02:28:47;;;;;;;22.80;12.02;;;;;;;23.01;82.61;97717.16;4364871;32;20102;-81
2022/07/01 02:31:14;;;;;;;18.55;11.27;;;;;;;23.30;82.38;97721.34;4364619;32;20126;-81
2022/07/01 02:33:42;;;;;;;17.80;12.00;;;;;;;23.36;83.23;97733.88;4364664;32;20150;-81
2022/07/01 02:36:09;;;;;;;18.37;11.80;;;;;;;23.16;84.76;97732.41;4364392;32;20087;-81
2022/07/01 02:38:36;;;;;;;21.85;11.98;;;;;;;23.47;83.62;97746.78;4364863;32;20114;-81
2022/07/01 02:41:03;;;;;;;17.90;11.12;;;;;;;23.71;82.72;97748.78;4364733;32;20091;-81
2022/07/01 02:43:29;;;;;;;16.75;9.65;;;;;;;23.88;81.72;97750.53;4364182;32;20162;-81
2022/07/01 02:45:59;;;;;;;21.23;10.25;;;;;;;24.24;79.58;97753.03;4364542;32;20131;-81
2022/07/01 02:48:26;;;;;;;17.27;10.38;;;;;;;24.42;78.32;97758.22;4364564;32;20499;-82
2022/07/01 02:50:53;;;;;;;16.10;10.63;;;;;;;23.99;79.61;97764.44;4350682;32;20126;-81
2022/07/01 02:53:21;;;;;;;17.62;10.27;;;;;;;23.82;78.91;97764.38;4364524;32;20178;-81
2022/07/01 02:55:48;;;;;;;17.45;11.25;;;;;;;23.92;77.94;97770.31;4364519;32;20539;-81
2022/07/01 02:58:15;;;;;;;18.05;11.43;;;;;;;23.65;78.99;97778.41;4364275;32;20103;-81
2022/07/01 03:00:42;;;;;;;24.77;11.07;;;;;;;23.54;78.76;97776.81;4364579;32;20407;-82
2022/07/01 03:03:09;;;;;;;23.27;11.63;;;;;;;23.59;77.65;97781.63;4364358;32;20154;-81
2022/07/01 03:05:36;;;;;;;15.98;10.90;;;;;;;24.01;76.61;97788.81;4363928;32;20101;-81
2022/07/01 03:08:03;;;;;;;20.37;11.05;;;;;;;24.03;77.18;97786.84;4364527;32;20113;-81
2022/07/01 03:10:30;;;;;;;17.90;11.30;;;;;;;24.10;76.62;97783.44;4364396;32;20414;-81
2022/07/01 03:12:59;;;;;;;19.23;11.02;;;;;;;24.17;76.54;97791.56;4363805;32;20170;-81
2022/07/01 03:15:26;;;;;;;17.58;10.98;;;;;;;23.84;77.77;97788.75;4364325;32;20080;-81
2022/07/01 03:17:53;;;;;;;19.12;10.82;;;;;;;24.17;76.11;97789.75;4364352;32;20114;-81
2022/07/01 03:20:20;;;;;;;17.90;11.23;;;;;;;23.96;77.04;97791.94;4363949;32;20143;-81
2022/07/01 03:22:47;;;;;;;18.30;10.57;;;;;;;24.02;76.91;97793.09;4364023;32;20110;-81
2022/07/01 03:25:14;;;;;;;18.23;10.85;;;;;;;24.35;75.71;97787.06;4363813;32;20105;-81
2022/07/01 03:27:45;;;;;;;20.17;10.52;;;;;;;24.18;77.09;97783.50;4364268;32;20170;-81
2022/07/01 03:30:13;;;;;;;17.27;10.18;;;;;;;24.45;76.08;97793.00;4364262;32;20153;-81
2022/07/01 03:32:41;;;;;;;18.40;10.65;;;;;;;24.47;76.17;97795.53;4363673;32;20759;-81
2022/07/01 03:37:55;;;;;;;19.35;10.15;;;;;;;24.30;77.78;97794.56;4364039;32;20486;-81
2022/07/01 03:40:22;;;;;;;19.75;10.00;;;;;;;24.85;75.08;97796.78;4350274;32;20241;-81
2022/07/01 03:42:49;;;;;;;17.42;9.80;;;;;;;24.91;74.59;97804.06;4363876;32;20092;-81
2022/07/01 03:45:16;;;;;;;17.42;10.00;;;;;;;24.76;72.29;97800.38;4363844;32;20487;-81
2022/07/01 03:47:49;;;;;;;23.30;9.93;;;;;;;24.56;73.21;97802.44;4363595;32;20158;-81
2022/07/01 03:50:18;;;;;;;17.58;9.68;;;;;;;24.79;71.99;97800.06;4363884;32;20125;-81
2022/07/01 03:52:45;;;;;;;17.05;9.68;;;;;;;24.58;72.91;97804.94;4350259;32;20446;-81
2022/07/01 03:55:14;;;;;;;17.40;9.63;;;;;;;24.88;72.11;97798.25;4363390;32;20103;-81
2022/07/01 03:57:41;;;;;;;19.17;9.68;;;;;;;25.27;71.26;97801.16;4363818;32;20091;-81
2022/07/01 04:00:09;;;;;;;15.95;9.10;;;;;;;25.80;69.34;97794.56;4363749;32;20146;-81
2022/07/01 04:02:35;;;;;;;15.93;9.15;;;;;;;26.22;68.08;97795.12;4365012;32;20090;-81
2022/07/01 04:05:03;;;;;;;18.67;9.15;;;;;;;26.68;66.34;97792.66;4365533;32;20106;-81
2022/07/01 04:07:30;;;;;;;13.85;8.70;;;;;;;27.26;64.42;97793.16;4352102;32;20122;-81
2022/07/01 04:09:57;;;;;;;16.75;8.55;;;;;;;27.82;62.27;97785.75;4365784;32;20169;-81
2022/07/01 04:12:24;;;;;;;21.00;8.55;;;;;;;28.59;59.73;97790.72;4365625;32;20126;-81
2022/07/01 04:14:51;;;;;;;15.82;8.13;;;;;;;29.27;57.32;97794.78;4351896;32;20178;-81
2022/07/01 04:17:18;;;;;;;14.68;7.97;;;;;;;29.81;55.61;97786.25;4365855;32;20099;-81
2022/07/01 04:19:45;;;;;;;17.70;8.25;;;;;;;30.47;53.19;97792.00;4365695;32;20166;-81
2022/07/01 04:24:58;;;;;;;16.25;7.95;;;;;;;31.36;50.70;97787.38;4365539;32;20087;-81
2022/07/01 04:27:25;;;;;;;15.77;7.40;;;;;;;32.06;48.99;97779.78;4365653;32;20095;-81
2022/07/01 04:29:52;;;;;;;13.62;7.70;;;;;;;32.62;47.33;97786.41;4365288;32;20731;-81
2022/07/01 04:32:19;;;;;;;14.98;7.28;;;;;;;33.18;45.88;97791.06;4365608;32;20116;-81
2022/07/01 04:34:46;;;;;;;17.25;7.28;;;;;;;33.78;44.33;97792.28;4365420;32;20106;-81
2022/07/01 04:37:13;;;;;;;15.40;7.35;;;;;;;34.49;42.59;97786.44;4365225;32;20109;-82
2022/07/01 04:39:40;;;;;;;15.18;7.45;;;;;;;35.22;40.83;97801.59;4365571;32;20247;-81
2022/07/01 04:42:07;;;;;;;14.23;7.10;;;;;;;35.39;40.48;97807.13;4365499;32;20118;-82
2022/07/01 04:44:36;;;;;;;12.93;7.22;;;;;;;35.73;39.51;97815.47;4365066;32;20359;-82
2022/07/01 04:47:09;;;;;;;45.85;9.05;;;;;;;36.11;39.02;97807.81;4365560;32;20110;-81
2022/07/01 04:49:36;;;;;;;16.87;7.32;;;;;;;36.37;38.31;97805.69;4365306;32;20110;-82
2022/07/01 04:52:03;;;;;;;11.38;6.72;;;;;;;35.52;39.76;97803.44;4365430;32;20095;-82
2022/07/01 04:54:30;;;;;;;14.27;6.93;;;;;;;35.79;39.94;97806.50;4365442;32;20162;-82
2022/07/01 04:56:57;;;;;;;15.07;7.35;;;;;;;35.77;39.76;97809.41;4365206;32;20460;-82
2022/07/01 04:59:24;;;;;;;16.10;7.18;;;;;;;35.92;39.63;97804.41;4365443;32;20163;-82
2022/07/01 05:01:51;;;;;;;14.90;7.32;;;;;;;35.65;40.35;97811.28;4365343;32;20107;-82
2022/07/01 05:04:18;;;;;;;15.00;7.10;;;;;;;36.80;38.48;97816.00;4364892;32;20150;-82
2022/07/01 05:06:46;;;;;;;14.32;6.53;;;;;;;37.74;36.13;97813.66;4365464;32;20102;-82
2022/07/01 05:09:13;;;;;;;16.42;6.68;;;;;;;38.30;34.55;97808.34;4365355;32;20110;-82
2022/07/01 05:11:40;;;;;;;13.62;7.25;;;;;;;38.52;34.65;97803.78;4364640;32;20167;-82
2022/07/01 05:14:08;;;;;;;16.20;6.80;;;;;;;38.67;34.52;97809.38;4365290;32;20158;-82
2022/07/01 05:16:35;;;;;;;17.52;7.47;;;;;;;39.12;33.56;97816.38;4365160;32;20498;-82
2022/07/01 05:22:00;;;;;;;15.93;7.20;;;;;;;39.94;32.44;97817.91;4365367;32;20430;-82
2022/07/01 05:24:30;;;;;;;15.60;7.28;;;;;;;40.88;31.26;97827.09;4364821;32;20143;-81
2022/07/01 05:26:58;;;;;;;12.07;5.95;;;;;;;40.70;31.74;97822.94;4365325;32;20184;-83
2022/07/01 05:29:25;;;;;;;12.48;6.60;;;;;;;41.31;29.72;97828.56;4365303;32;20106;-82
2022/07/01 05:31:52;;;;;;;16.30;5.78;;;;;;;41.33;29.84;97832.62;4364867;32;20251;-82
2022/07/01 05:34:20;;;;;;;13.18;6.30;;;;;;;40.35;31.72;97835.19;4365168;32;20426;-84
2022/07/01 05:36:47;;;;;;;15.75;7.55;;;;;;;40.59;31.58;97838.31;4365096;32;20087;-82
2022/07/01 05:39:14;;;;;;;16.83;6.55;;;;;;;40.94;30.98;97845.78;4364813;32;20506;-82
2022/07/01 05:41:41;;;;;;;12.35;6.00;;;;;;;41.23;30.12;97840.69;4365050;32;20154;-78
2022/07/01 05:44:08;;;;;;;15.25;5.78;;;;;;;41.01;29.73;97843.63;4351522;32;20080;-79
2022/07/01 05:46:36;;;;;;;13.68;5.45;;;;;;;41.14;30.01;97846.91;4366372;32;20117;-77
2022/07/01 05:49:03;;;;;;;10.20;4.40;;;;;;;40.42;30.86;97845.81;4366440;32;20499;-78
2022/07/01 05:51:31;;;;;;;12.82;4.78;;;;;;;39.56;31.92;97852.19;4366551;32;20106;-79
2022/07/01 05:53:58;;;;;;;16.73;4.82;;;;;;;38.79;32.35;97852.37;4367418;32;20118;-84
2022/07/01 05:56:26;;;;;;;16.85;5.07;;;;;;;38.14;33.11;97856.59;4370383;32;20746;-83
2022/07/01 05:58:54;;;;;;;12.90;5.50;;;;;;;38.36;33.42;97858.53;4371427;32;20094;-83
2022/07/01 06:01:21;;;;;;;14.18;4.20;;;;;;;38.47;33.68;97857.63;4369122;32;20125;-83
2022/07/01 06:03:48;;;;;;;13.82;4.80;;;;;;;37.82;33.02;97855.56;4369932;32;20111;-84
2022/07/01 06:06:18;;;;;;;12.05;5.12;;;;;;;37.79;33.95;97859.56;4366201;32;20090;-85
2022/07/01 06:08:45;;;;;;;13.77;4.90;;;;;;;37.80;35.03;97863.88;4364681;32;20748;-85
2022/07/01 06:11:12;;;;;;;12.27;4.90;;;;;;;37.46;34.16;97870.28;4351565;32;20169;-85
2022/07/01 06:13:39;;;;;;;11.82;5.18;;;;;;;37.02;35.16;97860.03;4364684;32;20498;-85
2022/07/01 06:16:06;;;;;;;12.37;5.20;;;;;;;37.26;34.95;97868.81;4364674;32;20106;-89
2022/07/01 06:18:33;;;;;;;13.18;5.43;;;;;;;37.40;34.59;97863.97;4365329;32;20106;-86
2022/07/01 06:21:00;;;;;;;12.70;4.70;;;;;;;37.62;34.91;97866.75;4364288;32;20103;-85
2022/07/01 06:23:27;;;;;;;10.70;4.72;;;;;;;37.70;34.90;97858.28;4364073;32;20137;-86
2022/07/01 06:25:54;;;;;;;11.32;4.90;;;;;;;37.22;35.70;97859.59;4365807;32;20415;-89
2022/07/01 06:28:21;;;;;;;14.07;4.75;;;;;;;36.72;36.55;97868.25;4364671;32;20138;-85
2022/07/01 06:30:49;;;;;;;12.10;4.82;;;;;;;36.05;38.20;97867.00;4364611;32;20106;-84
2022/07/01 06:33:16;;;;;;;14.40;5.32;;;;;;;36.19;37.38;97868.41;4364516;32;20079;-86
2022/07/01 06:35:43;;;;;;;12.98;5.05;;;;;;;35.60;38.78;97865.63;4364175;32;20503;-87
2022/07/01 06:38:10;;;;;;;11.85;4.80;;;;;;;35.20;39.75;97862.69;4364652;32;20146;-88
2022/07/01 06:40:37;;;;;;;10.55;5.35;;;;;;;35.24;39.70;97871.91;4364306;32;20169;-89
2022/07/01 06:43:04;;;;;;;11.50;5.50;;;;;;;35.08;40.38;97861.78;4365032;32;20163;-85
2022/07/01 06:45:31;;;;;;;11.70;4.37;;;;;;;34.98;41.16;97869.56;4365447;32;20119;-85
2022/07/01 06:47:58;;;;;;;12.65;5.10;;;;;;;35.14;39.79;97860.09;4366171;32;20157;-86
2022/07/01 06:50:25;;;;;;;11.45;4.30;;;;;;;35.04;40.09;97860.63;4364217;32;20102;-85
2022/07/01 06:52:52;;;;;;;10.40;4.57;;;;;;;34.71;40.45;97863.69;4365170;32;20047;-85
2022/07/01 06:55:19;;;;;;;12.88;4.80;;;;;;;35.04;39.42;97869.47;4364963;32;20111;-86
2022/07/01 06:57:46;;;;;;;13.30;4.75;;;;;;;35.24;39.34;97873.75;4364442;32;20154;-85
2022/07/01 07:00:13;;;;;;;16.20;4.85;;;;;;;34.97;39.53;97865.25;4365050;32;20146;-87
2022/07/01 07:02:40;;;;;;;10.70;4.57;;;;;;;34.73;41.00;97866.94;4364346;32;20118;-85
2022/07/01 07:05:08;;;;;;;9.27;3.78;;;;;;;35.13;39.25;97864.63;4364674;32;20099;-84
2022/07/01 07:07:37;;;;;;;12.65;4.50;;;;;;;34.44;39.32;97863.16;4365628;32;20087;-85
2022/07/01 07:10:04;;;;;;;12.32;4.82;;;;;;;33.83;41.64;97871.91;4366337;32;20446;-84
2022/07/01 07:12:31;;;;;;;12.68;4.78;;;;;;;33.58;42.49;97870.00;4366929;32;20138;-85
2022/07/01 07:14:58;;;;;;;11.90;4.97;;;;;;;34.05;41.42;97878.53;4365384;32;20159;-85
2022/07/01 07:17:25;;;;;;;12.02;4.95;;;;;;;34.12;41.42;97870.44;4364400;32;20090;-85
2022/07/01 07:19:54;;;;;;;11.25;4.65;;;;;;;33.33;42.31;97864.59;4364951;32;20157;-85
2022/07/01 07:22:22;;;;;;;14.32;4.80;;;;;;;33.14;43.77;97876.22;4364541;32;20533;-85
2022/07/01 07:24:49;;;;;;;11.45;4.95;;;;;;;33.44;43.25;97868.47;4364512;32;20171;-83
2022/07/01 07:27:16;;;;;;;13.98;4.72;;;;;;;33.91;42.87;97866.28;4364180;32;20174;-85
2022/07/01 07:29:43;;;;;;;13.18;4.32;;;;;;;34.03;41.32;97874.44;4363864;32;20351;-85
2022/07/01 07:32:10;;;;;;;13.82;3.80;;;;;;;33.67;41.48;97871.38;4363727;32;20158;-84
2022/07/01 07:34:37;;;;;;;17.67;4.40;;;;;;;33.77;40.51;97864.75;4364000;32;20247;-82
2022/07/01 07:37:05;;;;;;;11.20;4.20;;;;;;;34.36;39.90;97855.41;4365774;32;20098;-83
2022/07/01 07:39:32;;;;;;;11.15;4.30;;;;;;;34.10;38.86;97867.16;4365417;32;20150;-84
2022/07/01 07:41:59;;;;;;;14.90;4.50;;;;;;;34.15;38.90;97868.16;4365671;32;20498;-82
2022/07/01 07:44:26;;;;;;;12.40;4.05;;;;;;;34.32;39.34;97860.34;4365483;32;20088;-83
2022/07/01 07:46:54;;;;;;;11.20;4.15;;;;;;;34.88;36.56;97855.88;4365069;32;20116;-84
2022/07/01 07:49:21;;;;;;;12.15;4.15;;;;;;;35.15;36.26;97857.16;4352027;32;20106;-84
2022/07/01 07:51:48;;;;;;;11.55;4.00;;;;;;;34.89;36.49;97861.03;4365486;32;20082;-84
2022/07/01 07:54:15;;;;;;;12.48;4.65;;;;;;;34.97;36.14;97862.56;4365568;32;20114;-83
2022/07/01 07:56:42;;;;;;;11.77;4.10;;;;;;;34.68;36.39;97864.97;4365822;32;20465;-84
2022/07/01 07:59:11;;;;;;;16.75;4.75;;;;;;;34.40;36.43;97859.28;4365512;32;20442;-85
2022/07/01 08:01:38;;;;;;;13.98;3.90;;;;;;;34.71;36.16;97866.37;4365659;32;20114;-84
2022/07/01 08:04:05;;;;;;;12.45;4.45;;;;;;;35.12;34.85;97872.91;4365588;32;20107;-84
2022/07/01 08:06:32;;;;;;;11.45;4.07;;;;;;;35.17;36.96;97873.84;4365107;32;20098;-84
2022/07/01 08:09:00;;;;;;;12.18;4.65;;;;;;;35.06;35.56;97878.09;4365693;32;20106;-84
2022/07/01 08:11:27;;;;;;;11.18;3.95;;;;;;;35.07;36.78;97876.25;4365477;32;20474;-85
2022/07/01 08:13:54;;;;;;;12.90;4.22;;;;;;;34.75;37.16;97883.63;4365202;32;20107;-85
2022/07/01 08:16:21;;;;;;;11.75;4.18;;;;;;;34.91;36.58;97871.53;4365405;32;20122;-84
2022/07/01 08:18:48;;;;;;;13.35;4.22;;;;;;;35.04;36.48;97877.53;4365475;32;20079;-83
2022/07/01 08:21:16;;;;;;;11.32;4.28;;;;;;;34.86;36.79;97877.50;4364964;32;20154;-84
2022/07/01 08:23:43;;;;;;;9.40;3.60;;;;;;;35.37;36.22;97881.63;4365472;32;20438;-83
2022/07/01 08:26:13;;;;;;;12.68;3.80;;;;;;;35.34;34.94;97880.22;4365261;32;20102;-83
2022/07/01 08:28:41;;;;;;;12.27;3.75;;;;;;;34.99;35.36;97877.41;4365017;32;20105;-83
2022/07/01 08:31:08;;;;;;;13.82;3.65;;;;;;;35.16;34.89;97877.56;4365367;32;20105;-83
2022/07/01 08:33:37;;;;;;;12.23;4.18;;;;;;;34.89;35.88;97882.47;4365312;32;20183;-84
2022/07/01 08:36:08;;;;;;;15.38;4.30;;;;;;;34.86;36.28;97874.81;4365033;32;20115;-84
2022/07/01 08:38:36;;;;;;;9.57;3.20;;;;;;;35.28;35.16;97885.66;4365575;32;20095;-84
2022/07/01 08:41:04;;;;;;;13.23;3.90;;;;;;;35.78;34.54;97890.75;4365244;32;20523;-85
2022/07/01 08:43:31;;;;;;;12.27;4.28;;;;;;;35.83;34.58;97886.31;4365277;32;20095;-87
2022/07/01 08:46:03;;;;;;;11.25;3.80;;;;;;;36.07;32.61;97894.44;4365287;32;20156;-86
2022/07/01 08:48:31;;;;;;;11.85;4.03;;;;;;;35.21;34.36;97893.00;4364581;32;20433;-86
2022/07/01 08:50:58;;;;;;;12.18;3.83;;;;;;;35.31;34.75;97898.66;4365350;32;20162;-86
2022/07/01 08:53:25;;;;;;;15.27;3.80;;;;;;;35.51;33.05;97891.13;4365264;32;20122;-86
2022/07/01 08:58:37;;;;;;;14.55;3.75;;;;;;;35.42;33.68;97891.72;4365345;32;20161;-85
2022/07/01 09:01:22;;;;;;;13.50;3.90;;;;;;;35.77;32.73;97889.94;4365189;32;20111;-85
2022/07/01 09:03:54;;;;;;;13.20;3.72;;;;;;;35.41;33.48;97882.81;4364864;32;20103;-86
2022/07/01 09:06:26;;;;;;;8.98;3.37;;;;;;;35.36;33.35;97891.53;4364823;32;20129;-85
2022/07/01 09:08:53;;;;;;;11.43;4.00;;;;;;;35.56;32.97;97885.09;4365063;32;20090;-86
2022/07/01 09:11:22;;;;;;;12.13;3.47;;;;;;;35.69;33.26;97890.25;4364780;32;20166;-85
2022/07/01 09:14:09;;;;;;;13.70;3.60;;;;;;;36.00;32.41;97891.88;4365153;32;20155;-85
2022/07/01 09:16:48;;;;;;;11.50;3.70;;;;;;;35.81;31.93;97893.78;4364933;32;20137;-85
2022/07/01 09:19:17;;;;;;;16.77;4.20;;;;;;;36.22;31.39;97890.25;4365262;32;20435;-86
2022/07/01 09:21:52;;;;;;;10.90;3.80;;;;;;;35.83;31.71;97894.38;4365481;32;20131;-86
2022/07/01 09:24:41;;;;;;;9.75;3.30;;;;;;;35.35;32.33;97900.62;4351441;32;20137;-86
2022/07/01 09:27:13;;;;;;;15.35;3.58;;;;;;;34.85;32.54;97891.97;4352007;32;20111;-87
2022/07/01 09:29:42;;;;;;;12.85;3.62;;;;;;;35.11;32.13;97901.59;4365238;32;20103;-87
2022/07/01 09:32:12;;;;;;;9.80;3.30;;;;;;;35.23;33.17;97890.91;4364672;32;20083;-88
2022/07/01 09:34:44;;;;;;;9.35;3.65;;;;;;;35.78;32.60;97891.56;4364998;32;20142;-86
2022/07/01 09:37:16;;;;;;;16.27;3.80;;;;;;;36.01;31.13;97887.31;4364709;32;20154;-85
2022/07/01 09:39:57;;;;;;;10.63;3.50;;;;;;;35.91;30.87;97891.38;4351655;32;20510;-86
2022/07/01 09:42:26;;;;;;;11.48;3.53;;;;;;;35.04;32.56;97885.56;4364734;32;20092;-86
2022/07/01 09:45:11;;;;;;;12.57;3.50;;;;;;;35.19;32.36;97885.16;4364484;32;20134;-86
2022/07/01 09:47:43;;;;;;;13.00;3.70;;;;;;;35.23;33.07;97886.34;4351435;32;20477;-86
2022/07/01 09:50:10;;;;;;;13.10;3.97;;;;;;;35.58;32.09;97897.22;4364839;32;20574;-85
2022/07/01 09:52:38;;;;;;;13.23;4.85;;;;;;;35.29;32.67;97888.13;4364443;32;20131;-86
2022/07/01 09:55:06;;;;;;;11.38;3.90;;;;;;;35.04;33.43;97874.03;4364762;32;20114;-86
2022/07/01 09:57:33;;;;;;;14.52;4.28;;;;;;;35.14;33.17;97889.56;4365027;32;20170;-85
2022/07/01 10:00:00;;;;;;;12.27;4.22;;;;;;;35.05;34.42;97892.56;4363535;32;20114;-85
2022/07/01 10:02:31;;;;;;;13.00;4.05;;;;;;;34.92;34.49;97873.97;4352161;32;20091;-84
2022/07/01 10:05:08;;;;;;;18.02;4.78;;;;;;;34.96;34.76;97885.88;4366048;32;20134;-84
2022/07/01 10:07:44;;;;;;;14.70;4.57;;;;;;;35.16;34.41;97880.25;4351622;32;20134;-86
2022/07/01 10:10:21;;;;;;;12.50;4.25;;;;;;;35.48;34.41;97874.69;4364773;32;20083;-85
2022/07/01 10:12:53;;;;;;;12.93;4.37;;;;;;;35.83;33.87;97880.94;4364544;32;20163;-86
2022/07/01 10:15:21;;;;;;;10.30;4.18;;;;;;;35.42;33.86;97883.66;4351203;32;20107;-86
2022/07/01 10:17:50;;;;;;;15.07;4.32;;;;;;;35.41;34.70;97885.50;4351506;32;20163;-86
2022/07/01 10:20:19;;;;;;;9.82;3.70;;;;;;;35.79;33.73;97887.00;4364293;32;20154;-85
2022/07/01 10:22:50;;;;;;;13.62;4.40;;;;;;;35.89;33.46;97873.87;4351864;32;20087;-86
2022/07/01 10:25:48;;;;;;;12.02;4.40;;;;;;;35.78;33.78;97885.38;4364492;32;20650;-86
2022/07/01 10:28:52;;;;;;;11.75;4.25;;;;;;;35.62;33.72;97879.66;4364386;32;20533;-86
2022/07/01 10:31:19;;;;;;;18.17;4.60;;;;;;;35.93;33.59;97883.09;4339987;32;20110;-85
2022/07/01 10:33:50;;;;;;;12.35;4.28;;;;;;;36.15;33.38;97884.16;4350929;32;20105;-86
2022/07/01 10:36:34;;;;;;;11.23;4.25;;;;;;;36.11;33.54;97879.50;4364548;32;20103;-85
2022/07/01 10:39:07;;;;;;;13.98;4.53;;;;;;;35.58;33.57;97883.00;4364685;32;20143;-86
2022/07/01 10:41:41;;;;;;;12.98;4.05;;;;;;;35.40;34.60;97880.38;4364166;32;20520;-85
2022/07/01 10:44:13;;;;;;;14.52;4.50;;;;;;;35.90;32.67;97862.91;4364659;32;20102;-85
2022/07/01 10:46:49;;;;;;;13.70;4.75;;;;;;;36.42;32.44;97860.38;4364756;32;20159;-86
2022/07/01 10:49:53;;;;;;;9.75;4.10;;;;;;;36.16;32.54;97864.34;4364445;32;20114;-85
2022/07/01 10:52:20;;;;;;;11.68;4.35;;;;;;;36.05;32.65;97861.63;4333229;32;20547;-85
2022/07/01 10:54:52;;;;;;;13.65;4.32;;;;;;;36.00;32.76;97859.63;4363969;32;20126;-84
2022/07/01 10:57:19;;;;;;;12.73;4.43;;;;;;;36.00;32.66;97856.97;4364387;32;20095;-85
2022/07/01 10:59:54;;;;;;;11.38;4.30;;;;;;;35.99;32.39;97855.31;4364442;32;20099;-85
2022/07/01 11:02:23;;;;;;;9.63;4.07;;;;;;;36.18;32.16;97858.72;4363918;32;20178;-85
2022/07/01 11:04:55;;;;;;;11.88;4.30;;;;;;;36.17;32.26;97852.53;4350724;32;20142;-85
2022/07/01 11:07:28;;;;;;;11.60;4.47;;;;;;;36.52;31.70;97850.88;4364464;32;20115;-86
2022/07/01 11:09:56;;;;;;;10.27;4.05;;;;;;;36.24;31.75;97855.09;4363575;32;20588;-85
2022/07/01 11:12:23;;;;;;;11.02;4.05;;;;;;;36.66;31.76;97855.75;4363968;32;20129;-85
2022/07/01 11:14:51;;;;;;;13.85;4.43;;;;;;;36.65;31.66;97858.69;4364572;32;20110;-84
2022/07/01 11:17:19;;;;;;;12.57;4.12;;;;;;;36.28;32.09;97848.22;4364229;32;20099;-86
2022/07/01 11:19:50;;;;;;;17.15;4.37;;;;;;;35.84;32.27;97844.22;4366759;32;20095;-86
2022/07/01 11:22:22;;;;;;;25.55;5.22;;;;;;;35.90;33.13;97856.72;4366954;32;20134;-86
2022/07/01 11:24:53;;;;;;;10.82;4.07;;;;;;;36.00;32.70;97856.12;4366725;32;20063;-86
2022/07/01 11:27:24;;;;;;;13.00;4.25;;;;;;;35.84;32.80;97844.22;4366376;32;20095;-87
2022/07/01 11:29:53;;;;;;;14.20;5.12;;;;;;;35.69;32.60;97847.31;4364852;32;20143;-86
2022/07/01 11:32:30;;;;;;;13.57;4.18;;;;;;;35.86;32.92;97839.41;4364915;32;20107;-87
2022/07/01 11:34:59;;;;;;;11.93;4.15;;;;;;;36.07;32.50;97840.75;4369101;32;20083;-87
2022/07/01 11:40:15;;;;;;;12.00;4.60;;;;;;;36.81;31.84;97833.75;4365379;32;20549;-86
2022/07/01 11:42:42;;;;;;;9.95;4.43;;;;;;;37.21;30.64;97833.72;4364285;32;20521;-87
2022/07/01 11:45:24;;;;;;;10.25;4.37;;;;;;;37.51;30.17;97830.78;4365330;32;20067;-86